createdAt,value
2022-11-27T00:00:14.575Z,11.88
2022-11-27T00:01:14.735Z,11.87
2022-11-27T00:02:14.987Z,11.86
2022-11-27T00:03:15.142Z,11.86
2022-11-27T00:04:15.358Z,11.86
2022-11-27T00:05:15.402Z,11.87
2022-11-27T00:06:15.580Z,11.86
2022-11-27T00:07:15.805Z,11.86
2022-11-27T00:08:15.933Z,11.88
2022-11-27T00:09:16.088Z,11.86
2022-11-27T00:10:16.262Z,11.86
2022-11-27T00:11:16.422Z,11.84
2022-11-27T00:12:16.592Z,11.83
2022-11-27T00:13:16.781Z,11.88
2022-11-27T00:14:16.938Z,11.84
2022-11-27T00:15:17.502Z,11.84
2022-11-27T00:16:17.383Z,11.86
2022-11-27T00:17:17.469Z,11.80
2022-11-27T00:18:17.688Z,11.83
2022-11-27T00:19:17.816Z,11.83
2022-11-27T00:20:17.979Z,11.86
2022-11-27T00:21:18.131Z,11.84
2022-11-27T00:22:18.296Z,11.84
2022-11-27T00:23:18.482Z,11.84
2022-11-27T00:24:18.621Z,11.84
2022-11-27T00:25:18.781Z,11.79
2022-11-27T00:26:18.960Z,11.84
2022-11-27T00:27:19.120Z,11.81
2022-11-27T00:28:19.290Z,11.81
2022-11-27T00:29:19.461Z,11.83
2022-11-27T00:30:19.626Z,11.80
2022-11-27T00:31:19.857Z,11.79
2022-11-27T00:32:19.970Z,11.81
2022-11-27T00:33:20.141Z,11.80
2022-11-27T00:34:20.313Z,11.80
2022-11-27T00:35:20.478Z,11.79
2022-11-27T00:36:20.663Z,11.80
2022-11-27T00:37:20.820Z,11.80
2022-11-27T00:38:21.011Z,11.76
2022-11-27T00:39:21.162Z,11.80
2022-11-27T00:40:21.330Z,11.79
2022-11-27T00:41:21.505Z,11.79
2022-11-27T00:42:21.676Z,11.76
2022-11-27T00:43:21.844Z,11.81
2022-11-27T00:44:22.004Z,11.76
2022-11-27T00:45:22.185Z,11.81
2022-11-27T00:46:27.833Z,11.76
2022-11-27T00:47:23.510Z,11.80
2022-11-27T00:48:22.719Z,11.80
2022-11-27T00:49:22.855Z,11.75
2022-11-27T00:50:23.039Z,11.76
2022-11-27T00:51:23.187Z,11.80
2022-11-27T00:52:23.352Z,11.76
2022-11-27T00:53:23.550Z,11.80
2022-11-27T00:54:23.737Z,11.73
2022-11-27T00:55:23.889Z,11.76
2022-11-27T00:56:24.090Z,11.73
2022-11-27T00:57:24.232Z,11.76
2022-11-27T00:58:24.407Z,11.72
2022-11-27T00:59:24.574Z,11.79
2022-11-27T01:00:24.754Z,11.75
2022-11-27T01:01:24.959Z,11.75
2022-11-27T01:02:25.126Z,11.73
2022-11-27T01:03:25.222Z,11.75
2022-11-27T01:04:25.411Z,11.71
2022-11-27T01:05:25.569Z,11.72
2022-11-27T01:06:25.728Z,11.75
2022-11-27T01:07:25.900Z,11.72
2022-11-27T01:08:26.071Z,11.72
2022-11-27T01:09:26.217Z,11.73
2022-11-27T01:10:26.374Z,11.71
2022-11-27T01:11:26.534Z,11.72
2022-11-27T01:12:26.744Z,11.68
2022-11-27T01:13:26.886Z,11.71
2022-11-27T01:14:27.071Z,11.68
2022-11-27T01:15:27.227Z,11.68
2022-11-27T01:16:27.420Z,11.68
2022-11-27T01:17:27.562Z,11.65
2022-11-27T01:18:27.722Z,11.65
2022-11-27T01:19:27.897Z,11.63
2022-11-27T01:20:28.058Z,11.63
2022-11-27T01:21:28.243Z,11.63
2022-11-27T01:22:28.404Z,11.63
2022-11-27T01:23:28.589Z,11.63
2022-11-27T01:24:28.772Z,11.61
2022-11-27T01:25:28.926Z,11.62
2022-11-27T01:26:29.128Z,11.61
2022-11-27T01:27:29.275Z,11.62
2022-11-27T01:28:29.429Z,11.57
2022-11-27T01:29:29.608Z,11.57
2022-11-27T01:30:29.768Z,11.57
2022-11-27T01:31:29.967Z,11.55
2022-11-27T01:32:30.086Z,11.54
2022-11-27T01:33:30.238Z,11.55
2022-11-27T01:34:30.416Z,11.53
2022-11-27T01:35:33.607Z,11.51
2022-11-27T01:36:30.746Z,11.51
2022-11-27T01:37:30.904Z,11.51
2022-11-27T01:38:31.050Z,11.50
2022-11-27T01:39:31.228Z,11.47
2022-11-27T01:40:31.386Z,11.47
2022-11-27T01:41:31.540Z,11.47
2022-11-27T01:42:31.712Z,11.47
2022-11-27T01:43:31.870Z,11.41
2022-11-27T01:44:32.073Z,11.46
2022-11-27T01:45:32.189Z,11.38
2022-11-27T01:46:32.427Z,11.41
2022-11-27T01:47:32.543Z,11.43
2022-11-27T01:48:32.711Z,11.38
2022-11-27T01:49:32.880Z,11.41
2022-11-27T01:50:33.031Z,11.36
2022-11-27T01:51:33.201Z,11.36
2022-11-27T01:52:33.352Z,11.31
2022-11-27T01:53:33.543Z,11.32
2022-11-27T01:54:33.745Z,11.35
2022-11-27T01:55:33.913Z,11.31
2022-11-27T01:56:34.076Z,11.31
2022-11-27T01:57:34.231Z,11.28
2022-11-27T01:58:34.424Z,11.27
2022-11-27T01:59:34.571Z,11.27
2022-11-27T02:00:34.753Z,11.22
2022-11-27T02:01:34.960Z,11.22
2022-11-27T02:02:35.118Z,11.25
2022-11-27T02:03:35.276Z,11.28
2022-11-27T02:04:35.433Z,11.22
2022-11-27T02:05:35.634Z,11.21
2022-11-27T02:06:35.803Z,11.22
2022-11-27T02:07:36.025Z,11.17
2022-11-27T02:08:36.124Z,11.17
2022-11-27T02:09:36.286Z,11.19
2022-11-27T02:10:36.469Z,11.14
2022-11-27T02:11:36.655Z,11.17
2022-11-27T02:12:36.806Z,11.17
2022-11-27T02:13:36.951Z,11.13
2022-11-27T02:14:37.294Z,11.12
2022-11-27T02:15:37.335Z,11.13
2022-11-27T02:16:37.508Z,11.10
2022-11-27T02:17:37.644Z,11.09
2022-11-27T02:18:37.819Z,11.12
2022-11-27T02:19:37.967Z,11.09
2022-11-27T02:20:38.152Z,11.09
2022-11-27T02:21:38.321Z,11.07
2022-11-27T02:22:38.473Z,11.03
2022-11-27T02:23:38.670Z,11.01
2022-11-27T02:24:39.130Z,11.06
2022-11-27T02:25:38.990Z,11.01
2022-11-27T02:26:39.178Z,10.96
2022-11-27T02:27:39.324Z,10.95
2022-11-27T02:28:39.489Z,10.99
2022-11-27T02:29:39.649Z,10.95
2022-11-27T02:30:39.811Z,10.96
2022-11-27T02:31:40.054Z,10.94
2022-11-27T02:32:40.144Z,10.94
2022-11-27T02:33:40.293Z,10.94
2022-11-27T02:34:40.745Z,10.91
2022-11-27T02:35:40.640Z,10.91
2022-11-27T02:36:40.856Z,10.91
2022-11-27T02:37:40.971Z,10.89
2022-11-27T02:38:41.173Z,10.88
2022-11-27T02:39:41.324Z,10.88
2022-11-27T02:40:41.503Z,10.85
2022-11-27T02:41:41.661Z,10.85
2022-11-27T02:42:41.823Z,10.80
2022-11-27T02:43:41.976Z,10.84
2022-11-27T02:44:42.450Z,10.79
2022-11-27T02:45:42.298Z,10.84
2022-11-27T02:46:42.553Z,10.76
2022-11-27T02:47:42.643Z,10.79
2022-11-27T02:48:42.822Z,10.79
2022-11-27T02:49:42.964Z,10.74
2022-11-27T02:50:43.274Z,10.76
2022-11-27T02:51:43.350Z,10.76
2022-11-27T02:52:43.488Z,10.71
2022-11-27T02:53:43.634Z,10.74
2022-11-27T02:54:43.833Z,10.71
2022-11-27T02:55:43.992Z,10.74
2022-11-27T02:56:44.206Z,10.69
2022-11-27T02:57:44.327Z,10.70
2022-11-27T02:58:44.495Z,10.67
2022-11-27T02:59:44.685Z,10.67
2022-11-27T03:00:44.860Z,10.69
2022-11-27T03:01:45.086Z,10.67
2022-11-27T03:02:45.248Z,10.61
2022-11-27T03:03:45.377Z,10.61
2022-11-27T03:04:45.557Z,10.62
2022-11-27T03:05:45.708Z,10.59
2022-11-27T03:06:45.890Z,10.61
2022-11-27T03:07:46.064Z,10.58
2022-11-27T03:08:46.229Z,10.61
2022-11-27T03:09:46.392Z,10.55
2022-11-27T03:10:46.561Z,10.58
2022-11-27T03:11:46.734Z,10.56
2022-11-27T03:12:46.892Z,10.54
2022-11-27T03:13:47.050Z,10.55
2022-11-27T03:14:47.213Z,10.52
2022-11-27T03:15:47.461Z,10.56
2022-11-27T03:16:47.687Z,10.55
2022-11-27T03:17:47.717Z,10.52
2022-11-27T03:18:47.870Z,10.49
2022-11-27T03:19:48.021Z,10.51
2022-11-27T03:20:48.186Z,10.49
2022-11-27T03:21:48.395Z,10.52
2022-11-27T03:22:48.546Z,10.49
2022-11-27T03:23:48.709Z,10.46
2022-11-27T03:24:48.880Z,10.48
2022-11-27T03:25:49.032Z,10.48
2022-11-27T03:26:49.206Z,10.48
2022-11-27T03:27:49.371Z,10.46
2022-11-27T03:28:49.530Z,10.41
2022-11-27T03:29:49.684Z,10.48
2022-11-27T03:30:49.878Z,10.44
2022-11-27T03:31:50.020Z,10.43
2022-11-27T03:32:50.174Z,10.46
2022-11-27T03:33:50.360Z,10.40
2022-11-27T03:34:50.525Z,10.41
2022-11-27T03:35:50.739Z,10.41
2022-11-27T03:36:50.896Z,10.41
2022-11-27T03:37:51.075Z,10.38
2022-11-27T03:38:51.230Z,10.36
2022-11-27T03:39:51.381Z,10.38
2022-11-27T03:40:51.565Z,10.38
2022-11-27T03:41:51.716Z,10.36
2022-11-27T03:42:51.898Z,10.36
2022-11-27T03:43:52.048Z,10.36
2022-11-27T03:44:52.214Z,10.34
2022-11-27T03:45:52.371Z,10.31
2022-11-27T03:46:52.626Z,10.33
2022-11-27T03:47:52.794Z,10.34
2022-11-27T03:48:52.977Z,10.36
2022-11-27T03:49:53.088Z,10.29
2022-11-27T03:50:53.249Z,10.29
2022-11-27T03:51:53.419Z,10.29
2022-11-27T03:52:53.619Z,10.29
2022-11-27T03:53:53.770Z,10.31
2022-11-27T03:54:53.945Z,10.30
2022-11-27T03:55:54.122Z,10.29
2022-11-27T03:56:54.279Z,10.25
2022-11-27T03:57:54.451Z,10.26
2022-11-27T03:58:54.608Z,10.26
2022-11-27T03:59:54.767Z,10.22
2022-11-27T04:00:54.944Z,10.23
2022-11-27T04:01:55.181Z,10.23
2022-11-27T04:02:55.307Z,10.22
2022-11-27T04:03:55.455Z,10.21
2022-11-27T04:04:55.587Z,10.21
2022-11-27T04:05:55.762Z,10.21
2022-11-27T04:06:55.923Z,10.16
2022-11-27T04:07:56.163Z,10.15
2022-11-27T04:08:56.243Z,10.15
2022-11-27T04:09:56.414Z,10.11
2022-11-27T04:10:56.562Z,10.15
2022-11-27T04:11:56.756Z,10.13
2022-11-27T04:12:57.154Z,10.11
2022-11-27T04:13:57.085Z,10.11
2022-11-27T04:14:57.236Z,10.13
2022-11-27T04:15:57.464Z,10.13
2022-11-27T04:16:57.565Z,10.11
2022-11-27T04:17:57.771Z,10.07
2022-11-27T04:18:57.891Z,10.07
2022-11-27T04:19:58.091Z,10.05
2022-11-27T04:20:58.241Z,10.05
2022-11-27T04:21:58.413Z,10.05
2022-11-27T04:22:58.585Z,10.05
2022-11-27T04:23:58.755Z,10.04
2022-11-27T04:24:58.906Z,10.03
2022-11-27T04:25:59.107Z,10.01
2022-11-27T04:26:59.257Z,10.03
2022-11-27T04:27:59.426Z,10.01
2022-11-27T04:28:59.603Z,10.03
2022-11-27T04:29:59.768Z,10.00
2022-11-27T04:30:59.960Z,10.01
2022-11-27T04:32:00.117Z,9.96
2022-11-27T04:33:00.280Z,9.97
2022-11-27T04:34:00.479Z,9.98
2022-11-27T04:35:00.643Z,9.97
2022-11-27T04:36:00.789Z,9.96
2022-11-27T04:37:00.950Z,9.94
2022-11-27T04:38:01.110Z,9.96
2022-11-27T04:39:01.280Z,9.93
2022-11-27T04:40:01.443Z,9.96
2022-11-27T04:41:01.591Z,9.94
2022-11-27T04:42:01.768Z,9.93
2022-11-27T04:43:01.920Z,9.87
2022-11-27T04:44:02.222Z,9.84
2022-11-27T04:45:02.245Z,9.87
2022-11-27T04:46:02.441Z,9.85
2022-11-27T04:47:02.765Z,9.84
2022-11-27T04:48:02.782Z,9.84
2022-11-27T04:49:02.951Z,9.82
2022-11-27T04:50:03.111Z,9.84
2022-11-27T04:51:03.262Z,9.78
2022-11-27T04:52:03.433Z,9.79
2022-11-27T04:53:03.587Z,9.79
2022-11-27T04:54:03.787Z,9.82
2022-11-27T04:55:03.941Z,9.79
2022-11-27T04:56:04.092Z,9.81
2022-11-27T04:57:04.264Z,9.75
2022-11-27T04:58:04.416Z,9.75
2022-11-27T04:59:04.596Z,9.77
2022-11-27T05:00:04.745Z,9.74
2022-11-27T05:01:04.962Z,9.75
2022-11-27T05:02:05.112Z,9.70
2022-11-27T05:03:05.345Z,9.70
2022-11-27T05:04:05.456Z,9.74
2022-11-27T05:05:05.615Z,9.70
2022-11-27T05:06:05.773Z,9.70
2022-11-27T05:07:05.968Z,9.67
2022-11-27T05:08:06.158Z,9.69
2022-11-27T05:09:06.318Z,9.67
2022-11-27T05:10:06.495Z,9.64
2022-11-27T05:11:06.652Z,9.64
2022-11-27T05:12:06.818Z,9.64
2022-11-27T05:13:06.991Z,9.63
2022-11-27T05:14:07.177Z,9.62
2022-11-27T05:15:07.328Z,9.62
2022-11-27T05:16:07.568Z,9.64
2022-11-27T05:17:07.656Z,9.59
2022-11-27T05:18:07.824Z,9.56
2022-11-27T05:19:08.032Z,9.60
2022-11-27T05:20:08.182Z,9.60
2022-11-27T05:21:08.371Z,9.60
2022-11-27T05:22:08.547Z,9.59
2022-11-27T05:23:08.698Z,9.54
2022-11-27T05:24:08.885Z,9.57
2022-11-27T05:25:09.031Z,9.57
2022-11-27T05:26:09.202Z,9.51
2022-11-27T05:27:09.359Z,9.51
2022-11-27T05:28:09.525Z,9.53
2022-11-27T05:29:09.689Z,9.51
2022-11-27T05:30:09.862Z,9.48
2022-11-27T05:31:10.062Z,9.49
2022-11-27T05:32:10.180Z,9.48
2022-11-27T05:33:10.337Z,9.49
2022-11-27T05:34:10.542Z,9.48
2022-11-27T05:35:10.689Z,9.48
2022-11-27T05:36:10.857Z,9.45
2022-11-27T05:37:15.024Z,9.49
2022-11-27T05:38:12.191Z,9.42
2022-11-27T05:39:11.391Z,9.44
2022-11-27T05:40:11.541Z,9.45
2022-11-27T05:41:11.704Z,9.42
2022-11-27T05:42:11.903Z,9.44
2022-11-27T05:43:12.053Z,9.42
2022-11-27T05:44:12.238Z,9.39
2022-11-27T05:45:12.388Z,9.39
2022-11-27T05:46:12.605Z,9.42
2022-11-27T05:47:12.745Z,9.41
2022-11-27T05:48:12.909Z,9.39
2022-11-27T05:49:13.100Z,9.35
2022-11-27T05:50:13.257Z,9.31
2022-11-27T05:51:13.409Z,9.35
2022-11-27T05:52:13.584Z,9.35
2022-11-27T05:53:13.744Z,9.38
2022-11-27T05:54:14.155Z,9.31
2022-11-27T05:55:14.074Z,9.31
2022-11-27T05:56:14.237Z,9.31
2022-11-27T05:57:14.427Z,9.27
2022-11-27T05:58:14.606Z,9.28
2022-11-27T05:59:14.779Z,9.30
2022-11-27T06:00:14.948Z,9.28
2022-11-27T06:01:15.106Z,9.28
2022-11-27T06:02:21.553Z,9.24
2022-11-27T06:03:16.487Z,9.26
2022-11-27T06:04:15.616Z,9.26
2022-11-27T06:05:15.768Z,9.24
2022-11-27T06:06:15.980Z,9.24
2022-11-27T06:07:16.182Z,9.20
2022-11-27T06:08:16.307Z,9.21
2022-11-27T06:09:16.461Z,9.21
2022-11-27T06:10:16.623Z,9.20
2022-11-27T06:11:16.801Z,9.21
2022-11-27T06:12:16.962Z,9.16
2022-11-27T06:13:17.108Z,9.21
2022-11-27T06:14:17.271Z,9.17
2022-11-27T06:15:17.442Z,9.13
2022-11-27T06:16:17.624Z,9.12
2022-11-27T06:17:17.754Z,9.13
2022-11-27T06:18:17.948Z,9.09
2022-11-27T06:19:18.132Z,9.11
2022-11-27T06:20:18.314Z,9.12
2022-11-27T06:21:18.462Z,9.08
2022-11-27T06:22:18.638Z,9.09
2022-11-27T06:23:18.793Z,9.08
2022-11-27T06:24:18.962Z,9.05
2022-11-27T06:25:19.132Z,9.05
2022-11-27T06:26:19.292Z,9.06
2022-11-27T06:27:19.443Z,9.06
2022-11-27T06:28:19.634Z,9.03
2022-11-27T06:29:19.793Z,9.03
2022-11-27T06:30:19.984Z,9.02
2022-11-27T06:31:20.173Z,9.02
2022-11-27T06:32:20.283Z,9.02
2022-11-27T06:33:20.435Z,9.02
2022-11-27T06:34:20.635Z,8.99
2022-11-27T06:35:20.810Z,8.99
2022-11-27T06:36:20.976Z,9.01
2022-11-27T06:37:21.149Z,8.94
2022-11-27T06:38:21.296Z,8.99
2022-11-27T06:39:21.446Z,8.99
2022-11-27T06:40:21.625Z,8.94
2022-11-27T06:41:21.778Z,8.95
2022-11-27T06:42:21.964Z,8.95
2022-11-27T06:43:22.117Z,8.95
2022-11-27T06:44:22.297Z,8.98
2022-11-27T06:45:22.522Z,8.94
2022-11-27T06:46:22.690Z,8.94
2022-11-27T06:47:22.835Z,8.94
2022-11-27T06:48:22.987Z,8.94
2022-11-27T06:49:23.154Z,8.93
2022-11-27T06:50:23.319Z,8.87
2022-11-27T06:51:23.504Z,8.91
2022-11-27T06:52:23.648Z,8.90
2022-11-27T06:53:23.857Z,8.88
2022-11-27T06:54:24.002Z,8.90
2022-11-27T06:55:24.171Z,8.87
2022-11-27T06:56:24.349Z,8.93
2022-11-27T06:57:24.540Z,8.91
2022-11-27T06:58:30.712Z,8.91
2022-11-27T06:59:25.862Z,8.88
2022-11-27T07:00:25.030Z,8.90
2022-11-27T07:01:25.307Z,8.86
2022-11-27T07:02:25.466Z,8.88
2022-11-27T07:03:25.591Z,8.90
2022-11-27T07:04:25.732Z,8.86
2022-11-27T07:05:25.911Z,8.88
2022-11-27T07:06:26.083Z,8.87
2022-11-27T07:07:26.276Z,8.83
2022-11-27T07:08:26.443Z,8.87
2022-11-27T07:09:26.601Z,8.84
2022-11-27T07:10:26.781Z,8.84
2022-11-27T07:11:26.954Z,8.86
2022-11-27T07:12:27.138Z,8.86
2022-11-27T07:13:27.338Z,8.83
2022-11-27T07:14:27.483Z,8.86
2022-11-27T07:15:27.660Z,8.84
2022-11-27T07:16:27.898Z,8.84
2022-11-27T07:17:28.007Z,8.84
2022-11-27T07:18:28.198Z,8.83
2022-11-27T07:19:28.353Z,8.86
2022-11-27T07:20:28.533Z,8.84
2022-11-27T07:21:28.706Z,8.87
2022-11-27T07:22:28.906Z,8.86
2022-11-27T07:23:29.065Z,8.83
2022-11-27T07:24:29.225Z,8.81
2022-11-27T07:25:29.397Z,8.86
2022-11-27T07:26:29.592Z,8.84
2022-11-27T07:27:29.765Z,8.84
2022-11-27T07:28:29.926Z,8.86
2022-11-27T07:29:30.107Z,8.88
2022-11-27T07:30:30.249Z,8.88
2022-11-27T07:31:30.579Z,8.86
2022-11-27T07:32:30.635Z,8.81
2022-11-27T07:33:30.775Z,8.86
2022-11-27T07:34:30.958Z,8.88
2022-11-27T07:35:31.131Z,8.86
2022-11-27T07:36:31.326Z,8.86
2022-11-27T07:37:31.478Z,8.84
2022-11-27T07:38:31.748Z,8.86
2022-11-27T07:39:54.486Z,8.87
2022-11-27T07:40:33.008Z,8.84
2022-11-27T07:41:34.098Z,8.88
2022-11-27T07:42:39.705Z,8.87
2022-11-27T07:43:33.547Z,8.87
2022-11-27T07:44:32.739Z,8.88
2022-11-27T07:45:32.965Z,8.91
2022-11-27T07:46:33.146Z,8.90
2022-11-27T07:47:33.280Z,8.93
2022-11-27T07:48:33.467Z,8.91
2022-11-27T07:49:33.642Z,8.91
2022-11-27T07:50:33.821Z,8.95
2022-11-27T07:51:34.016Z,8.93
2022-11-27T07:52:39.543Z,8.93
2022-11-27T07:53:35.366Z,8.95
2022-11-27T07:54:34.554Z,8.99
2022-11-27T07:55:34.716Z,8.98
2022-11-27T07:56:34.915Z,8.98
2022-11-27T07:57:35.082Z,8.95
2022-11-27T07:58:35.243Z,8.99
2022-11-27T07:59:35.422Z,9.05
2022-11-27T08:00:35.652Z,9.06
2022-11-27T08:01:35.840Z,9.08
2022-11-27T08:02:35.987Z,9.08
2022-11-27T08:03:36.158Z,9.06
2022-11-27T08:04:36.402Z,9.11
2022-11-27T08:05:36.518Z,9.11
2022-11-27T08:06:36.705Z,9.13
2022-11-27T08:07:36.945Z,9.09
2022-11-27T08:08:37.069Z,9.12
2022-11-27T08:09:37.235Z,9.11
2022-11-27T08:10:37.429Z,9.16
2022-11-27T08:11:37.587Z,9.19
2022-11-27T08:12:37.795Z,9.23
2022-11-27T08:13:37.935Z,9.21
2022-11-27T08:14:38.383Z,9.24
2022-11-27T08:15:38.307Z,9.26
2022-11-27T08:16:38.569Z,9.28
2022-11-27T08:17:38.665Z,9.31
2022-11-27T08:18:38.830Z,9.28
2022-11-27T08:19:39.014Z,9.35
2022-11-27T08:20:39.218Z,9.36
2022-11-27T08:21:39.364Z,9.35
2022-11-27T08:22:39.557Z,9.42
2022-11-27T08:23:39.728Z,9.45
2022-11-27T08:24:40.034Z,9.48
2022-11-27T08:25:40.078Z,9.51
2022-11-27T08:26:40.263Z,9.53
2022-11-27T08:27:40.470Z,9.60
2022-11-27T08:28:40.613Z,9.62
2022-11-27T08:29:40.796Z,9.63
2022-11-27T08:30:40.969Z,9.69
2022-11-27T08:31:41.174Z,9.69
2022-11-27T08:32:41.362Z,9.77
2022-11-27T08:33:41.513Z,9.77
2022-11-27T08:34:41.929Z,9.77
2022-11-27T08:35:41.871Z,9.82
2022-11-27T08:36:42.042Z,9.85
2022-11-27T08:37:42.236Z,9.88
2022-11-27T08:38:42.401Z,9.85
2022-11-27T08:39:42.592Z,9.97
2022-11-27T08:40:42.796Z,9.98
2022-11-27T08:41:42.943Z,9.97
2022-11-27T08:42:43.133Z,10.01
2022-11-27T08:43:43.302Z,10.00
2022-11-27T08:44:43.639Z,10.05
2022-11-27T08:45:43.677Z,10.08
2022-11-27T08:46:43.824Z,10.08
2022-11-27T08:47:44.054Z,10.13
2022-11-27T08:48:44.200Z,10.18
2022-11-27T08:49:46.243Z,10.19
2022-11-27T08:50:44.552Z,10.22
2022-11-27T08:51:44.737Z,10.25
2022-11-27T08:52:44.912Z,10.31
2022-11-27T08:53:45.085Z,10.33
2022-11-27T08:54:45.255Z,10.31
2022-11-27T08:55:45.446Z,10.34
2022-11-27T08:56:45.605Z,10.38
2022-11-27T08:57:45.831Z,10.40
2022-11-27T08:58:45.974Z,10.44
2022-11-27T08:59:46.145Z,10.44
2022-11-27T09:00:46.377Z,10.49
2022-11-27T09:01:46.486Z,10.48
2022-11-27T09:02:46.673Z,10.52
2022-11-27T09:03:46.910Z,10.55
2022-11-27T09:04:47.071Z,10.58
2022-11-27T09:05:47.212Z,10.59
2022-11-27T09:06:47.381Z,10.63
2022-11-27T09:07:47.592Z,10.62
2022-11-27T09:08:47.757Z,10.63
2022-11-27T09:09:47.895Z,10.69
2022-11-27T09:10:48.169Z,10.69
2022-11-27T09:11:48.249Z,10.70
2022-11-27T09:12:48.415Z,10.71
2022-11-27T09:13:48.611Z,10.74
2022-11-27T09:14:48.769Z,10.76
2022-11-27T09:15:48.959Z,10.79
2022-11-27T09:16:49.164Z,10.79
2022-11-27T09:17:49.340Z,10.80
2022-11-27T09:18:49.501Z,10.81
2022-11-27T09:19:49.670Z,10.87
2022-11-27T09:20:49.840Z,10.85
2022-11-27T09:21:50.040Z,10.87
2022-11-27T09:22:50.199Z,10.87
2022-11-27T09:23:50.411Z,10.85
2022-11-27T09:24:50.557Z,10.89
2022-11-27T09:25:50.739Z,10.89
2022-11-27T09:26:50.903Z,10.94
2022-11-27T09:27:51.083Z,10.98
2022-11-27T09:28:51.279Z,10.96
2022-11-27T09:29:51.467Z,10.98
2022-11-27T09:30:51.633Z,11.01
2022-11-27T09:31:51.850Z,11.03
2022-11-27T09:32:51.995Z,11.07
2022-11-27T09:33:52.202Z,11.07
2022-11-27T09:34:52.376Z,11.12
2022-11-27T09:35:52.544Z,11.10
2022-11-27T09:36:52.704Z,11.14
2022-11-27T09:37:52.879Z,11.14
2022-11-27T09:38:53.067Z,11.19
2022-11-27T09:39:53.238Z,11.25
2022-11-27T09:40:53.420Z,11.25
2022-11-27T09:41:53.599Z,11.27
2022-11-27T09:42:53.780Z,11.29
2022-11-27T09:43:53.974Z,11.35
2022-11-27T09:44:54.136Z,11.38
2022-11-27T09:45:54.339Z,11.44
2022-11-27T09:46:54.534Z,11.47
2022-11-27T09:47:54.672Z,11.48
2022-11-27T09:48:54.863Z,11.51
2022-11-27T09:49:55.038Z,11.54
2022-11-27T09:50:55.208Z,11.54
2022-11-27T09:51:55.396Z,11.54
2022-11-27T09:52:55.578Z,11.68
2022-11-27T09:53:55.758Z,11.71
2022-11-27T09:54:55.927Z,11.71
2022-11-27T09:55:56.106Z,11.72
2022-11-27T09:56:56.289Z,11.79
2022-11-27T09:57:56.479Z,11.81
2022-11-27T09:58:56.639Z,11.84
2022-11-27T09:59:56.824Z,11.86
2022-11-27T10:00:57.000Z,11.96
2022-11-27T10:01:57.378Z,11.99
2022-11-27T10:02:57.457Z,11.99
2022-11-27T10:03:57.539Z,12.02
2022-11-27T10:05:13.470Z,12.09
2022-11-27T10:05:58.863Z,12.11
2022-11-27T10:06:58.082Z,12.16
2022-11-27T10:08:03.291Z,12.17
2022-11-27T10:08:59.402Z,12.24
2022-11-27T10:09:58.592Z,12.27
2022-11-27T10:10:58.756Z,12.34
2022-11-27T10:11:58.943Z,12.31
2022-11-27T10:12:59.134Z,12.41
2022-11-27T10:13:59.299Z,12.45
2022-11-27T10:14:59.477Z,12.49
2022-11-27T10:15:59.671Z,12.53
2022-11-27T10:17:00.156Z,12.54
2022-11-27T10:18:00.013Z,12.60
2022-11-27T10:19:00.195Z,12.66
2022-11-27T10:20:00.377Z,12.71
2022-11-27T10:21:00.544Z,12.79
2022-11-27T10:22:00.735Z,12.83
2022-11-27T10:23:00.908Z,12.86
2022-11-27T10:24:01.102Z,12.86
2022-11-27T10:25:01.268Z,12.93
2022-11-27T10:26:01.466Z,13.04
2022-11-27T10:27:01.605Z,13.01
2022-11-27T10:28:01.786Z,13.09
2022-11-27T10:29:01.959Z,13.09
2022-11-27T10:30:02.153Z,13.13
2022-11-27T10:31:02.326Z,13.23
2022-11-27T10:32:02.541Z,13.25
2022-11-27T10:33:02.748Z,13.30
2022-11-27T10:34:02.851Z,13.35
2022-11-27T10:35:03.032Z,13.46
2022-11-27T10:36:03.239Z,13.46
2022-11-27T10:37:03.400Z,13.52
2022-11-27T10:38:06.767Z,13.55
2022-11-27T10:39:03.734Z,13.60
2022-11-27T10:40:03.909Z,13.67
2022-11-27T10:41:04.110Z,13.67
2022-11-27T10:42:04.279Z,13.71
2022-11-27T10:43:04.455Z,13.81
2022-11-27T10:44:04.630Z,13.84
2022-11-27T10:45:04.833Z,13.91
2022-11-27T10:46:05.037Z,13.93
2022-11-27T10:47:05.175Z,13.99
2022-11-27T10:48:05.347Z,14.06
2022-11-27T10:49:05.524Z,14.07
2022-11-27T10:50:05.721Z,14.11
2022-11-27T10:51:05.885Z,14.18
2022-11-27T10:52:06.063Z,14.29
2022-11-27T10:53:06.231Z,14.30
2022-11-27T10:54:06.437Z,14.34
2022-11-27T10:55:06.852Z,14.45
2022-11-27T10:56:06.780Z,14.44
2022-11-27T10:57:06.956Z,14.52
2022-11-27T10:58:07.143Z,14.62
2022-11-27T10:59:07.323Z,14.67
2022-11-27T11:00:07.528Z,14.72
2022-11-27T11:01:07.729Z,14.80
2022-11-27T11:02:07.955Z,14.84
2022-11-27T11:03:08.036Z,14.91
2022-11-27T11:04:24.702Z,14.96
2022-11-27T11:05:31.130Z,15.05
2022-11-27T11:06:20.837Z,15.06
2022-11-27T11:07:09.776Z,15.02
2022-11-27T11:08:08.930Z,15.07
2022-11-27T11:09:09.088Z,15.02
2022-11-27T11:10:09.269Z,15.05
2022-11-27T11:11:09.450Z,15.06
2022-11-27T11:12:09.639Z,15.06
2022-11-27T11:13:09.817Z,15.15
2022-11-27T11:14:09.972Z,15.21
2022-11-27T11:15:10.159Z,15.28
2022-11-27T11:16:14.511Z,15.33
2022-11-27T11:17:10.584Z,15.40
2022-11-27T11:18:10.679Z,15.49
2022-11-27T11:19:10.869Z,15.53
2022-11-27T11:20:12.027Z,15.60
2022-11-27T11:21:11.225Z,15.66
2022-11-27T11:22:14.571Z,15.76
2022-11-27T11:23:11.580Z,15.80
2022-11-27T11:24:11.772Z,15.86
2022-11-27T11:25:11.922Z,15.95
2022-11-27T11:26:12.113Z,16.01
2022-11-27T11:27:12.292Z,16.11
2022-11-27T11:28:12.453Z,16.16
2022-11-27T11:29:12.634Z,16.28
2022-11-27T11:30:12.823Z,16.34
2022-11-27T11:31:13.059Z,16.39
2022-11-27T11:32:13.273Z,16.49
2022-11-27T11:33:13.343Z,16.64
2022-11-27T11:34:13.504Z,16.65
2022-11-27T11:35:13.685Z,16.79
2022-11-27T11:36:13.854Z,16.89
2022-11-27T11:37:14.033Z,16.97
2022-11-27T11:38:14.213Z,17.07
2022-11-27T11:39:14.394Z,17.13
2022-11-27T11:40:16.275Z,17.21
2022-11-27T11:41:14.766Z,17.34
2022-11-27T11:42:14.947Z,17.47
2022-11-27T11:43:15.111Z,17.55
2022-11-27T11:44:15.277Z,17.67
2022-11-27T11:45:15.427Z,17.82
2022-11-27T11:46:15.654Z,17.95
2022-11-27T11:47:15.766Z,18.17
2022-11-27T11:48:15.917Z,18.38
2022-11-27T11:49:16.107Z,18.73
2022-11-27T11:50:16.334Z,19.00
2022-11-27T11:51:16.489Z,19.16
2022-11-27T11:52:16.660Z,19.24
2022-11-27T11:53:16.840Z,19.28
2022-11-27T11:54:17.009Z,19.26
2022-11-27T11:55:17.187Z,19.18
2022-11-27T11:56:17.394Z,19.09
2022-11-27T11:57:17.522Z,19.06
2022-11-27T11:58:17.691Z,19.03
2022-11-27T11:59:17.846Z,19.00
2022-11-27T12:00:18.037Z,18.96
2022-11-27T12:01:33.439Z,18.98
2022-11-27T12:02:19.402Z,18.93
2022-11-27T12:03:18.521Z,18.94
2022-11-27T12:04:18.723Z,18.98
2022-11-27T12:05:18.859Z,19.03
2022-11-27T12:06:19.047Z,19.09
2022-11-27T12:07:19.300Z,19.13
2022-11-27T12:08:19.400Z,19.19
2022-11-27T12:09:19.565Z,19.24
2022-11-27T12:10:19.747Z,19.26
2022-11-27T12:11:19.937Z,19.27
2022-11-27T12:12:20.090Z,19.36
2022-11-27T12:13:20.257Z,19.38
2022-11-27T12:14:20.436Z,19.38
2022-11-27T12:15:20.607Z,19.51
2022-11-27T12:16:20.839Z,19.53
2022-11-27T12:17:20.950Z,19.53
2022-11-27T12:18:21.150Z,19.53
2022-11-27T12:19:21.297Z,19.55
2022-11-27T12:20:21.491Z,19.56
2022-11-27T12:21:21.664Z,19.59
2022-11-27T12:22:21.852Z,19.63
2022-11-27T12:23:21.999Z,19.67
2022-11-27T12:24:22.180Z,19.68
2022-11-27T12:25:22.389Z,19.71
2022-11-27T12:26:22.535Z,19.79
2022-11-27T12:27:22.710Z,19.83
2022-11-27T12:28:22.890Z,19.91
2022-11-27T12:29:23.102Z,19.96
2022-11-27T12:30:23.231Z,20.06
2022-11-27T12:31:23.407Z,20.08
2022-11-27T12:32:23.553Z,20.11
2022-11-27T12:33:23.727Z,20.23
2022-11-27T12:34:23.902Z,20.26
2022-11-27T12:35:24.073Z,20.36
2022-11-27T12:36:24.264Z,20.45
2022-11-27T12:37:24.422Z,20.54
2022-11-27T12:38:24.594Z,20.61
2022-11-27T12:39:24.774Z,20.72
2022-11-27T12:40:24.966Z,20.78
2022-11-27T12:41:25.106Z,20.86
2022-11-27T12:42:25.276Z,21.00
2022-11-27T12:43:25.473Z,21.15
2022-11-27T12:44:25.652Z,21.26
2022-11-27T12:45:25.889Z,21.47
2022-11-27T12:46:26.021Z,21.54
2022-11-27T12:47:26.174Z,21.62
2022-11-27T12:48:26.350Z,21.67
2022-11-27T12:49:26.537Z,21.72
2022-11-27T12:50:26.729Z,21.75
2022-11-27T12:51:26.868Z,21.75
2022-11-27T12:52:27.053Z,21.78
2022-11-27T12:53:27.228Z,21.79
2022-11-27T12:54:27.380Z,21.87
2022-11-27T12:55:27.598Z,21.87
2022-11-27T12:56:27.710Z,21.93
2022-11-27T12:57:27.888Z,21.99
2022-11-27T12:58:28.061Z,22.14
2022-11-27T12:59:28.241Z,22.30
2022-11-27T13:00:28.432Z,22.44
2022-11-27T13:01:28.636Z,22.51
2022-11-27T13:02:28.868Z,22.63